sensor_id;sensor_type;location;lat;lon;timestamp;P1;durP1;ratioP1;P2;durP2;ratioP2
52412;SDS011;38339;53.234;6.578;2022-09-29T00:00:31;10.35;;;6.82;;
52412;SDS011;38339;53.234;6.578;2022-09-29T00:02:57;7.72;;;6.93;;
52412;SDS011;38339;53.234;6.578;2022-09-29T00:05:23;9.02;;;7.50;;
52412;SDS011;38339;53.234;6.578;2022-09-29T00:07:48;9.00;;;7.32;;
52412;SDS011;38339;53.234;6.578;2022-09-29T00:10:14;9.65;;;7.53;;
52412;SDS011;38339;53.234;6.578;2022-09-29T00:12:40;9.13;;;7.30;;
52412;SDS011;38339;53.234;6.578;2022-09-29T00:15:05;10.38;;;7.60;;
52412;SDS011;38339;53.234;6.578;2022-09-29T00:17:31;10.90;;;8.38;;
52412;SDS011;38339;53.234;6.578;2022-09-29T00:19:57;9.70;;;7.80;;
52412;SDS011;38339;53.234;6.578;2022-09-29T00:22:23;9.98;;;8.30;;
52412;SDS011;38339;53.234;6.578;2022-09-29T00:24:49;11.20;;;8.02;;
52412;SDS011;38339;53.234;6.578;2022-09-29T00:27:15;9.70;;;8.65;;
52412;SDS011;38339;53.234;6.578;2022-09-29T00:29:41;11.35;;;8.52;;
52412;SDS011;38339;53.234;6.578;2022-09-29T00:32:07;10.10;;;8.27;;
52412;SDS011;38339;53.234;6.578;2022-09-29T00:34:33;9.80;;;8.80;;
52412;SDS011;38339;53.234;6.578;2022-09-29T00:36:58;10.60;;;8.95;;
52412;SDS011;38339;53.234;6.578;2022-09-29T00:39:24;11.27;;;8.90;;
52412;SDS011;38339;53.234;6.578;2022-09-29T00:41:50;10.05;;;8.70;;
52412;SDS011;38339;53.234;6.578;2022-09-29T00:47:02;11.63;;;8.48;;
52412;SDS011;38339;53.234;6.578;2022-09-29T00:55:24;12.65;;;8.98;;
52412;SDS011;38339;53.234;6.578;2022-09-29T00:57:49;10.02;;;8.30;;
52412;SDS011;38339;53.234;6.578;2022-09-29T01:00:19;11.95;;;9.45;;
52412;SDS011;38339;53.234;6.578;2022-09-29T01:02:46;11.70;;;9.00;;
52412;SDS011;38339;53.234;6.578;2022-09-29T01:05:18;10.77;;;9.40;;
52412;SDS011;38339;53.234;6.578;2022-09-29T01:07:49;11.15;;;9.50;;
52412;SDS011;38339;53.234;6.578;2022-09-29T01:10:16;12.38;;;9.48;;
52412;SDS011;38339;53.234;6.578;2022-09-29T01:12:42;12.57;;;9.75;;
52412;SDS011;38339;53.234;6.578;2022-09-29T01:15:10;11.95;;;10.43;;
52412;SDS011;38339;53.234;6.578;2022-09-29T01:17:37;12.52;;;9.95;;
52412;SDS011;38339;53.234;6.578;2022-09-29T01:20:09;11.48;;;10.20;;
52412;SDS011;38339;53.234;6.578;2022-09-29T01:28:58;15.60;;;11.07;;
52412;SDS011;38339;53.234;6.578;2022-09-29T01:37:05;12.35;;;10.98;;
52412;SDS011;38339;53.234;6.578;2022-09-29T01:42:42;13.00;;;11.40;;
52412;SDS011;38339;53.234;6.578;2022-09-29T01:45:17;13.73;;;11.80;;
52412;SDS011;38339;53.234;6.578;2022-09-29T01:47:56;12.90;;;11.52;;
52412;SDS011;38339;53.234;6.578;2022-09-29T01:50:41;12.77;;;11.43;;
52412;SDS011;38339;53.234;6.578;2022-09-29T01:53:14;14.48;;;11.95;;
52412;SDS011;38339;53.234;6.578;2022-09-29T01:55:52;13.43;;;11.95;;
52412;SDS011;38339;53.234;6.578;2022-09-29T01:58:23;16.38;;;11.80;;
52412;SDS011;38339;53.234;6.578;2022-09-29T02:00:56;13.68;;;11.55;;
52412;SDS011;38339;53.234;6.578;2022-09-29T02:06:00;13.35;;;11.90;;
52412;SDS011;38339;53.234;6.578;2022-09-29T02:08:36;14.00;;;11.85;;
52412;SDS011;38339;53.234;6.578;2022-09-29T02:11:07;14.63;;;12.02;;
52412;SDS011;38339;53.234;6.578;2022-09-29T02:13:39;14.40;;;12.55;;
52412;SDS011;38339;53.234;6.578;2022-09-29T02:16:10;13.93;;;12.40;;
52412;SDS011;38339;53.234;6.578;2022-09-29T02:18:41;16.63;;;12.95;;
52412;SDS011;38339;53.234;6.578;2022-09-29T02:21:14;18.00;;;13.98;;
52412;SDS011;38339;53.234;6.578;2022-09-29T02:23:40;15.43;;;12.90;;
52412;SDS011;38339;53.234;6.578;2022-09-29T02:26:06;14.15;;;12.68;;
52412;SDS011;38339;53.234;6.578;2022-09-29T02:28:32;15.63;;;13.50;;
52412;SDS011;38339;53.234;6.578;2022-09-29T02:30:58;16.65;;;13.75;;
52412;SDS011;38339;53.234;6.578;2022-09-29T02:33:24;16.55;;;13.23;;
52412;SDS011;38339;53.234;6.578;2022-09-29T02:39:00;18.45;;;13.77;;
52412;SDS011;38339;53.234;6.578;2022-09-29T02:58:31;15.77;;;14.18;;
52412;SDS011;38339;53.234;6.578;2022-09-29T03:01:17;17.13;;;15.27;;
52412;SDS011;38339;53.234;6.578;2022-09-29T03:03:42;16.05;;;14.25;;
52412;SDS011;38339;53.234;6.578;2022-09-29T03:06:08;16.65;;;14.95;;
52412;SDS011;38339;53.234;6.578;2022-09-29T03:08:35;16.15;;;14.43;;
52412;SDS011;38339;53.234;6.578;2022-09-29T03:11:01;15.57;;;13.98;;
52412;SDS011;38339;53.234;6.578;2022-09-29T03:13:27;16.75;;;14.98;;
52412;SDS011;38339;53.234;6.578;2022-09-29T03:15:52;16.00;;;14.15;;
52412;SDS011;38339;53.234;6.578;2022-09-29T03:18:18;16.55;;;14.70;;
52412;SDS011;38339;53.234;6.578;2022-09-29T03:20:46;18.05;;;15.45;;
52412;SDS011;38339;53.234;6.578;2022-09-29T03:23:12;17.25;;;15.45;;
52412;SDS011;38339;53.234;6.578;2022-09-29T03:25:37;18.73;;;15.48;;
52412;SDS011;38339;53.234;6.578;2022-09-29T03:28:03;17.38;;;15.35;;
52412;SDS011;38339;53.234;6.578;2022-09-29T03:30:29;17.98;;;16.00;;
52412;SDS011;38339;53.234;6.578;2022-09-29T03:32:54;18.23;;;16.33;;
52412;SDS011;38339;53.234;6.578;2022-09-29T03:35:20;20.30;;;15.70;;
52412;SDS011;38339;53.234;6.578;2022-09-29T03:37:46;18.48;;;15.95;;
52412;SDS011;38339;53.234;6.578;2022-09-29T03:40:11;17.10;;;14.98;;
52412;SDS011;38339;53.234;6.578;2022-09-29T03:42:38;17.42;;;15.57;;
52412;SDS011;38339;53.234;6.578;2022-09-29T03:45:04;19.00;;;16.15;;
52412;SDS011;38339;53.234;6.578;2022-09-29T03:47:30;17.85;;;15.95;;
52412;SDS011;38339;53.234;6.578;2022-09-29T03:49:56;20.02;;;17.08;;
52412;SDS011;38339;53.234;6.578;2022-09-29T03:52:21;20.23;;;16.40;;
52412;SDS011;38339;53.234;6.578;2022-09-29T03:54:47;19.38;;;16.55;;
52412;SDS011;38339;53.234;6.578;2022-09-29T03:57:13;19.85;;;15.88;;
52412;SDS011;38339;53.234;6.578;2022-09-29T03:59:38;17.75;;;15.55;;
52412;SDS011;38339;53.234;6.578;2022-09-29T04:02:04;18.85;;;15.52;;
52412;SDS011;38339;53.234;6.578;2022-09-29T04:04:30;17.70;;;15.50;;
52412;SDS011;38339;53.234;6.578;2022-09-29T04:06:56;17.00;;;15.05;;
52412;SDS011;38339;53.234;6.578;2022-09-29T04:09:21;20.85;;;15.75;;
52412;SDS011;38339;53.234;6.578;2022-09-29T04:11:47;17.52;;;15.65;;
52412;SDS011;38339;53.234;6.578;2022-09-29T04:14:13;19.27;;;16.17;;
52412;SDS011;38339;53.234;6.578;2022-09-29T04:16:38;18.42;;;15.57;;
52412;SDS011;38339;53.234;6.578;2022-09-29T04:19:04;21.42;;;16.65;;
52412;SDS011;38339;53.234;6.578;2022-09-29T04:21:30;17.52;;;15.40;;
52412;SDS011;38339;53.234;6.578;2022-09-29T04:23:55;19.48;;;15.93;;
52412;SDS011;38339;53.234;6.578;2022-09-29T04:26:21;18.45;;;16.42;;
52412;SDS011;38339;53.234;6.578;2022-09-29T04:28:47;17.15;;;15.38;;
52412;SDS011;38339;53.234;6.578;2022-09-29T04:31:13;18.55;;;16.02;;
52412;SDS011;38339;53.234;6.578;2022-09-29T04:33:38;18.63;;;15.35;;
52412;SDS011;38339;53.234;6.578;2022-09-29T04:36:05;22.02;;;18.88;;
52412;SDS011;38339;53.234;6.578;2022-09-29T04:38:31;19.77;;;17.10;;
52412;SDS011;38339;53.234;6.578;2022-09-29T04:40:57;19.70;;;16.98;;
52412;SDS011;38339;53.234;6.578;2022-09-29T04:43:23;19.48;;;15.45;;
52412;SDS011;38339;53.234;6.578;2022-09-29T04:45:49;20.00;;;15.88;;
52412;SDS011;38339;53.234;6.578;2022-09-29T04:48:14;22.02;;;18.25;;
52412;SDS011;38339;53.234;6.578;2022-09-29T04:50:40;24.25;;;18.00;;
52412;SDS011;38339;53.234;6.578;2022-09-29T04:53:07;18.63;;;16.25;;
52412;SDS011;38339;53.234;6.578;2022-09-29T04:55:35;19.45;;;15.95;;
52412;SDS011;38339;53.234;6.578;2022-09-29T04:58:01;20.88;;;17.35;;
52412;SDS011;38339;53.234;6.578;2022-09-29T05:00:27;18.52;;;16.10;;
52412;SDS011;38339;53.234;6.578;2022-09-29T05:02:53;18.73;;;16.38;;
52412;SDS011;38339;53.234;6.578;2022-09-29T05:05:19;18.13;;;15.40;;
52412;SDS011;38339;53.234;6.578;2022-09-29T05:07:44;21.00;;;17.08;;
52412;SDS011;38339;53.234;6.578;2022-09-29T05:10:10;19.88;;;16.45;;
52412;SDS011;38339;53.234;6.578;2022-09-29T05:12:36;22.13;;;17.30;;
52412;SDS011;38339;53.234;6.578;2022-09-29T05:15:02;22.55;;;18.05;;
52412;SDS011;38339;53.234;6.578;2022-09-29T05:17:28;20.65;;;17.88;;
52412;SDS011;38339;53.234;6.578;2022-09-29T05:19:54;21.27;;;18.23;;
52412;SDS011;38339;53.234;6.578;2022-09-29T05:22:20;24.95;;;19.13;;
52412;SDS011;38339;53.234;6.578;2022-09-29T05:24:49;22.02;;;18.52;;
52412;SDS011;38339;53.234;6.578;2022-09-29T05:27:15;22.73;;;18.95;;
52412;SDS011;38339;53.234;6.578;2022-09-29T05:29:41;26.55;;;21.75;;
52412;SDS011;38339;53.234;6.578;2022-09-29T05:32:06;26.35;;;21.20;;
52412;SDS011;38339;53.234;6.578;2022-09-29T05:34:32;25.35;;;20.38;;
52412;SDS011;38339;53.234;6.578;2022-09-29T05:36:58;22.48;;;18.70;;
52412;SDS011;38339;53.234;6.578;2022-09-29T05:39:23;23.08;;;19.58;;
52412;SDS011;38339;53.234;6.578;2022-09-29T05:41:49;22.83;;;18.95;;
52412;SDS011;38339;53.234;6.578;2022-09-29T05:44:15;22.05;;;18.58;;
52412;SDS011;38339;53.234;6.578;2022-09-29T05:46:40;22.88;;;19.83;;
52412;SDS011;38339;53.234;6.578;2022-09-29T05:49:06;31.30;;;24.25;;
52412;SDS011;38339;53.234;6.578;2022-09-29T05:51:32;24.02;;;19.17;;
52412;SDS011;38339;53.234;6.578;2022-09-29T05:53:57;24.40;;;19.00;;
52412;SDS011;38339;53.234;6.578;2022-09-29T05:56:25;23.02;;;19.17;;
52412;SDS011;38339;53.234;6.578;2022-09-29T05:58:51;21.83;;;18.70;;
52412;SDS011;38339;53.234;6.578;2022-09-29T06:01:18;22.92;;;19.38;;
52412;SDS011;38339;53.234;6.578;2022-09-29T06:03:46;26.15;;;19.85;;
52412;SDS011;38339;53.234;6.578;2022-09-29T06:06:13;22.25;;;19.52;;
52412;SDS011;38339;53.234;6.578;2022-09-29T06:08:41;24.60;;;20.13;;
52412;SDS011;38339;53.234;6.578;2022-09-29T06:11:08;25.17;;;19.83;;
52412;SDS011;38339;53.234;6.578;2022-09-29T06:13:43;24.50;;;18.63;;
52412;SDS011;38339;53.234;6.578;2022-09-29T06:16:14;25.50;;;19.45;;
52412;SDS011;38339;53.234;6.578;2022-09-29T06:18:41;25.23;;;19.35;;
52412;SDS011;38339;53.234;6.578;2022-09-29T06:21:08;28.40;;;20.92;;
52412;SDS011;38339;53.234;6.578;2022-09-29T06:23:36;24.40;;;18.75;;
52412;SDS011;38339;53.234;6.578;2022-09-29T06:26:03;24.05;;;19.48;;
52412;SDS011;38339;53.234;6.578;2022-09-29T06:28:34;25.85;;;19.88;;
52412;SDS011;38339;53.234;6.578;2022-09-29T06:31:08;36.65;;;27.02;;
52412;SDS011;38339;53.234;6.578;2022-09-29T06:33:36;32.78;;;26.08;;
52412;SDS011;38339;53.234;6.578;2022-09-29T06:36:06;27.48;;;20.17;;
52412;SDS011;38339;53.234;6.578;2022-09-29T06:38:58;22.40;;;19.45;;
52412;SDS011;38339;53.234;6.578;2022-09-29T06:41:25;27.15;;;19.58;;
52412;SDS011;38339;53.234;6.578;2022-09-29T06:43:53;24.75;;;20.10;;
52412;SDS011;38339;53.234;6.578;2022-09-29T06:46:19;25.65;;;21.20;;
52412;SDS011;38339;53.234;6.578;2022-09-29T06:48:45;24.58;;;19.80;;
52412;SDS011;38339;53.234;6.578;2022-09-29T06:51:11;32.72;;;20.55;;
52412;SDS011;38339;53.234;6.578;2022-09-29T06:53:38;25.33;;;20.08;;
52412;SDS011;38339;53.234;6.578;2022-09-29T06:56:04;24.70;;;20.17;;
52412;SDS011;38339;53.234;6.578;2022-09-29T06:58:33;24.65;;;19.92;;
52412;SDS011;38339;53.234;6.578;2022-09-29T07:00:59;24.50;;;19.95;;
52412;SDS011;38339;53.234;6.578;2022-09-29T07:03:26;24.77;;;20.70;;
52412;SDS011;38339;53.234;6.578;2022-09-29T07:06:03;26.05;;;20.83;;
52412;SDS011;38339;53.234;6.578;2022-09-29T07:08:32;24.27;;;20.15;;
52412;SDS011;38339;53.234;6.578;2022-09-29T07:11:00;24.65;;;20.05;;
52412;SDS011;38339;53.234;6.578;2022-09-29T07:13:27;26.48;;;20.48;;
52412;SDS011;38339;53.234;6.578;2022-09-29T07:15:54;26.55;;;20.58;;
52412;SDS011;38339;53.234;6.578;2022-09-29T07:18:20;24.58;;;20.25;;
52412;SDS011;38339;53.234;6.578;2022-09-29T07:20:46;22.98;;;20.40;;
52412;SDS011;38339;53.234;6.578;2022-09-29T07:23:12;26.55;;;20.95;;
52412;SDS011;38339;53.234;6.578;2022-09-29T07:25:38;28.52;;;21.98;;
52412;SDS011;38339;53.234;6.578;2022-09-29T07:28:04;27.33;;;21.73;;
52412;SDS011;38339;53.234;6.578;2022-09-29T07:30:29;27.63;;;21.33;;
52412;SDS011;38339;53.234;6.578;2022-09-29T07:32:55;28.17;;;22.00;;
52412;SDS011;38339;53.234;6.578;2022-09-29T07:35:21;27.85;;;22.30;;
52412;SDS011;38339;53.234;6.578;2022-09-29T07:37:54;30.98;;;23.40;;
52412;SDS011;38339;53.234;6.578;2022-09-29T07:40:20;29.20;;;23.17;;
52412;SDS011;38339;53.234;6.578;2022-09-29T07:42:46;26.60;;;20.77;;
52412;SDS011;38339;53.234;6.578;2022-09-29T07:45:12;28.38;;;21.38;;
52412;SDS011;38339;53.234;6.578;2022-09-29T07:47:39;25.92;;;20.58;;
52412;SDS011;38339;53.234;6.578;2022-09-29T07:50:04;27.40;;;20.85;;
52412;SDS011;38339;53.234;6.578;2022-09-29T07:52:30;25.98;;;21.52;;
52412;SDS011;38339;53.234;6.578;2022-09-29T07:54:56;26.60;;;21.15;;
52412;SDS011;38339;53.234;6.578;2022-09-29T07:57:22;29.20;;;21.38;;
52412;SDS011;38339;53.234;6.578;2022-09-29T07:59:47;29.30;;;22.98;;
52412;SDS011;38339;53.234;6.578;2022-09-29T08:02:13;26.98;;;21.95;;
52412;SDS011;38339;53.234;6.578;2022-09-29T08:04:39;29.05;;;21.45;;
52412;SDS011;38339;53.234;6.578;2022-09-29T08:07:06;27.70;;;22.50;;
52412;SDS011;38339;53.234;6.578;2022-09-29T08:09:32;30.58;;;22.33;;
52412;SDS011;38339;53.234;6.578;2022-09-29T08:11:58;29.45;;;22.77;;
52412;SDS011;38339;53.234;6.578;2022-09-29T08:14:23;29.17;;;22.90;;
52412;SDS011;38339;53.234;6.578;2022-09-29T08:16:49;35.78;;;25.63;;
52412;SDS011;38339;53.234;6.578;2022-09-29T08:19:15;35.78;;;25.15;;
52412;SDS011;38339;53.234;6.578;2022-09-29T08:21:40;31.13;;;25.20;;
52412;SDS011;38339;53.234;6.578;2022-09-29T08:24:06;34.47;;;25.67;;
52412;SDS011;38339;53.234;6.578;2022-09-29T08:26:33;38.40;;;25.70;;
52412;SDS011;38339;53.234;6.578;2022-09-29T08:29:03;38.50;;;27.80;;
52412;SDS011;38339;53.234;6.578;2022-09-29T08:31:29;34.78;;;26.38;;
52412;SDS011;38339;53.234;6.578;2022-09-29T08:33:55;32.47;;;25.95;;
52412;SDS011;38339;53.234;6.578;2022-09-29T08:36:23;33.25;;;24.95;;
52412;SDS011;38339;53.234;6.578;2022-09-29T08:38:50;32.63;;;24.38;;
52412;SDS011;38339;53.234;6.578;2022-09-29T08:43:57;29.50;;;22.73;;
52412;SDS011;38339;53.234;6.578;2022-09-29T08:46:28;27.30;;;21.48;;
52412;SDS011;38339;53.234;6.578;2022-09-29T08:48:59;26.48;;;21.20;;
52412;SDS011;38339;53.234;6.578;2022-09-29T08:51:42;27.88;;;19.80;;
52412;SDS011;38339;53.234;6.578;2022-09-29T08:54:24;21.00;;;17.98;;
52412;SDS011;38339;53.234;6.578;2022-09-29T08:56:55;23.08;;;17.35;;
52412;SDS011;38339;53.234;6.578;2022-09-29T08:59:22;23.30;;;18.48;;
52412;SDS011;38339;53.234;6.578;2022-09-29T09:02:24;23.65;;;18.83;;
52412;SDS011;38339;53.234;6.578;2022-09-29T09:08:14;21.33;;;16.95;;
52412;SDS011;38339;53.234;6.578;2022-09-29T09:11:05;18.77;;;15.98;;
52412;SDS011;38339;53.234;6.578;2022-09-29T09:13:50;20.65;;;15.48;;
52412;SDS011;38339;53.234;6.578;2022-09-29T09:19:29;17.40;;;14.65;;
52412;SDS011;38339;53.234;6.578;2022-09-29T09:22:00;18.75;;;14.45;;
52412;SDS011;38339;53.234;6.578;2022-09-29T09:24:40;16.02;;;13.15;;
52412;SDS011;38339;53.234;6.578;2022-09-29T09:27:20;16.08;;;12.73;;
52412;SDS011;38339;53.234;6.578;2022-09-29T09:29:49;17.20;;;12.32;;
52412;SDS011;38339;53.234;6.578;2022-09-29T09:32:27;14.82;;;12.05;;
52412;SDS011;38339;53.234;6.578;2022-09-29T09:34:59;13.65;;;11.25;;
52412;SDS011;38339;53.234;6.578;2022-09-29T09:37:33;13.13;;;10.45;;
52412;SDS011;38339;53.234;6.578;2022-09-29T09:40:16;14.98;;;11.50;;
52412;SDS011;38339;53.234;6.578;2022-09-29T09:42:59;14.30;;;10.50;;
52412;SDS011;38339;53.234;6.578;2022-09-29T09:45:49;12.43;;;9.50;;
52412;SDS011;38339;53.234;6.578;2022-09-29T09:48:25;9.90;;;7.38;;
52412;SDS011;38339;53.234;6.578;2022-09-29T09:51:10;11.35;;;8.60;;
52412;SDS011;38339;53.234;6.578;2022-09-29T09:54:01;13.90;;;9.18;;
52412;SDS011;38339;53.234;6.578;2022-09-29T10:01:59;10.60;;;8.15;;
52412;SDS011;38339;53.234;6.578;2022-09-29T10:04:25;9.70;;;7.60;;
52412;SDS011;38339;53.234;6.578;2022-09-29T10:06:52;10.68;;;7.05;;
52412;SDS011;38339;53.234;6.578;2022-09-29T10:09:20;8.80;;;6.50;;
52412;SDS011;38339;53.234;6.578;2022-09-29T10:11:46;8.93;;;5.60;;
52412;SDS011;38339;53.234;6.578;2022-09-29T10:14:13;9.95;;;7.28;;
52412;SDS011;38339;53.234;6.578;2022-09-29T10:16:46;9.48;;;7.70;;
52412;SDS011;38339;53.234;6.578;2022-09-29T10:19:23;9.35;;;6.88;;
52412;SDS011;38339;53.234;6.578;2022-09-29T10:22:13;13.63;;;6.85;;
52412;SDS011;38339;53.234;6.578;2022-09-29T10:24:39;8.60;;;6.15;;
52412;SDS011;38339;53.234;6.578;2022-09-29T10:27:04;8.23;;;6.22;;
52412;SDS011;38339;53.234;6.578;2022-09-29T10:29:41;7.55;;;5.80;;
52412;SDS011;38339;53.234;6.578;2022-09-29T10:32:14;6.80;;;5.53;;
52412;SDS011;38339;53.234;6.578;2022-09-29T10:34:51;7.18;;;4.68;;
52412;SDS011;38339;53.234;6.578;2022-09-29T10:42:40;5.93;;;4.05;;
52412;SDS011;38339;53.234;6.578;2022-09-29T10:45:28;4.63;;;3.55;;
52412;SDS011;38339;53.234;6.578;2022-09-29T10:50:24;5.18;;;3.60;;
52412;SDS011;38339;53.234;6.578;2022-09-29T10:55:31;4.22;;;2.88;;
52412;SDS011;38339;53.234;6.578;2022-09-29T10:57:59;4.95;;;3.00;;
52412;SDS011;38339;53.234;6.578;2022-09-29T11:00:33;4.68;;;2.80;;
52412;SDS011;38339;53.234;6.578;2022-09-29T11:03:05;3.08;;;2.42;;
52412;SDS011;38339;53.234;6.578;2022-09-29T11:05:48;4.45;;;2.28;;
52412;SDS011;38339;53.234;6.578;2022-09-29T11:08:18;5.57;;;2.70;;
52412;SDS011;38339;53.234;6.578;2022-09-29T11:10:51;3.97;;;2.90;;
52412;SDS011;38339;53.234;6.578;2022-09-29T11:13:33;3.45;;;2.53;;
52412;SDS011;38339;53.234;6.578;2022-09-29T11:16:05;3.35;;;2.42;;
52412;SDS011;38339;53.234;6.578;2022-09-29T11:18:40;5.15;;;2.42;;
52412;SDS011;38339;53.234;6.578;2022-09-29T11:26:46;4.60;;;3.08;;
52412;SDS011;38339;53.234;6.578;2022-09-29T11:29:35;3.92;;;3.00;;
52412;SDS011;38339;53.234;6.578;2022-09-29T11:35:25;3.42;;;2.50;;
52412;SDS011;38339;53.234;6.578;2022-09-29T11:57:03;3.60;;;2.13;;
52412;SDS011;38339;53.234;6.578;2022-09-29T12:16:16;1.73;;;1.50;;
52412;SDS011;38339;53.234;6.578;2022-09-29T12:23:53;1.77;;;1.63;;
52412;SDS011;38339;53.234;6.578;2022-09-29T12:26:20;2.65;;;1.63;;
52412;SDS011;38339;53.234;6.578;2022-09-29T12:29:25;2.85;;;1.80;;
52412;SDS011;38339;53.234;6.578;2022-09-29T12:31:50;2.63;;;1.90;;
52412;SDS011;38339;53.234;6.578;2022-09-29T12:34:21;1.63;;;1.50;;
52412;SDS011;38339;53.234;6.578;2022-09-29T12:37:17;3.97;;;1.70;;
52412;SDS011;38339;53.234;6.578;2022-09-29T12:45:13;4.63;;;1.70;;
52412;SDS011;38339;53.234;6.578;2022-09-29T12:50:56;1.73;;;1.30;;
52412;SDS011;38339;53.234;6.578;2022-09-29T12:58:47;1.77;;;1.40;;
52412;SDS011;38339;53.234;6.578;2022-09-29T13:01:33;2.72;;;1.42;;
52412;SDS011;38339;53.234;6.578;2022-09-29T13:28:48;2.30;;;1.80;;
52412;SDS011;38339;53.234;6.578;2022-09-29T13:31:21;3.30;;;1.70;;
52412;SDS011;38339;53.234;6.578;2022-09-29T13:33:52;4.22;;;1.60;;
52412;SDS011;38339;53.234;6.578;2022-09-29T13:36:30;1.90;;;1.50;;
52412;SDS011;38339;53.234;6.578;2022-09-29T13:39:00;3.55;;;1.60;;
52412;SDS011;38339;53.234;6.578;2022-09-29T13:41:44;2.03;;;1.65;;
52412;SDS011;38339;53.234;6.578;2022-09-29T13:44:28;3.35;;;1.58;;
52412;SDS011;38339;53.234;6.578;2022-09-29T13:46:54;2.50;;;1.60;;
52412;SDS011;38339;53.234;6.578;2022-09-29T13:51:49;3.80;;;2.20;;
52412;SDS011;38339;53.234;6.578;2022-09-29T13:59:59;4.00;;;1.38;;
52412;SDS011;38339;53.234;6.578;2022-09-29T14:08:06;1.80;;;1.20;;
52412;SDS011;38339;53.234;6.578;2022-09-29T14:10:45;1.80;;;1.20;;
52412;SDS011;38339;53.234;6.578;2022-09-29T14:13:19;2.35;;;1.30;;
52412;SDS011;38339;53.234;6.578;2022-09-29T14:29:49;1.40;;;1.30;;
52412;SDS011;38339;53.234;6.578;2022-09-29T14:35:26;2.20;;;1.40;;
52412;SDS011;38339;53.234;6.578;2022-09-29T14:46:24;2.80;;;1.38;;
52412;SDS011;38339;53.234;6.578;2022-09-29T14:55:25;3.05;;;1.30;;
52412;SDS011;38339;53.234;6.578;2022-09-29T15:00:52;2.50;;;1.30;;
52412;SDS011;38339;53.234;6.578;2022-09-29T15:03:30;1.40;;;1.05;;
52412;SDS011;38339;53.234;6.578;2022-09-29T15:08:43;2.40;;;1.33;;
52412;SDS011;38339;53.234;6.578;2022-09-29T15:11:41;4.60;;;1.20;;
52412;SDS011;38339;53.234;6.578;2022-09-29T15:14:28;2.25;;;1.25;;
52412;SDS011;38339;53.234;6.578;2022-09-29T15:27:19;3.05;;;1.20;;
52412;SDS011;38339;53.234;6.578;2022-09-29T15:29:45;2.40;;;1.70;;
52412;SDS011;38339;53.234;6.578;2022-09-29T15:32:23;3.33;;;1.35;;
52412;SDS011;38339;53.234;6.578;2022-09-29T15:34:52;2.50;;;1.42;;
52412;SDS011;38339;53.234;6.578;2022-09-29T15:37:25;2.70;;;1.70;;
52412;SDS011;38339;53.234;6.578;2022-09-29T15:39:51;1.67;;;1.15;;
52412;SDS011;38339;53.234;6.578;2022-09-29T15:42:21;5.00;;;3.33;;
52412;SDS011;38339;53.234;6.578;2022-09-29T15:44:58;3.03;;;1.20;;
52412;SDS011;38339;53.234;6.578;2022-09-29T15:47:43;6.82;;;1.27;;
52412;SDS011;38339;53.234;6.578;2022-09-29T15:50:20;1.42;;;1.10;;
52412;SDS011;38339;53.234;6.578;2022-09-29T15:52:47;1.40;;;1.30;;
52412;SDS011;38339;53.234;6.578;2022-09-29T15:55:23;1.65;;;1.20;;
52412;SDS011;38339;53.234;6.578;2022-09-29T15:57:50;3.42;;;1.60;;
52412;SDS011;38339;53.234;6.578;2022-09-29T16:05:17;4.05;;;1.38;;
52412;SDS011;38339;53.234;6.578;2022-09-29T16:07:59;1.83;;;1.27;;
52412;SDS011;38339;53.234;6.578;2022-09-29T16:10:31;8.32;;;5.10;;
52412;SDS011;38339;53.234;6.578;2022-09-29T16:13:02;2.80;;;2.05;;
52412;SDS011;38339;53.234;6.578;2022-09-29T16:15:42;2.55;;;1.48;;
52412;SDS011;38339;53.234;6.578;2022-09-29T16:18:25;1.80;;;1.30;;
52412;SDS011;38339;53.234;6.578;2022-09-29T16:21:17;1.85;;;1.20;;
52412;SDS011;38339;53.234;6.578;2022-09-29T16:23:49;4.32;;;1.50;;
52412;SDS011;38339;53.234;6.578;2022-09-29T16:26:32;4.60;;;1.38;;
52412;SDS011;38339;53.234;6.578;2022-09-29T16:29:05;2.58;;;1.52;;
52412;SDS011;38339;53.234;6.578;2022-09-29T16:31:32;2.88;;;1.20;;
52412;SDS011;38339;53.234;6.578;2022-09-29T16:34:00;1.67;;;1.20;;
52412;SDS011;38339;53.234;6.578;2022-09-29T16:38:58;1.88;;;1.20;;
52412;SDS011;38339;53.234;6.578;2022-09-29T16:44:04;3.05;;;1.50;;
52412;SDS011;38339;53.234;6.578;2022-09-29T16:49:20;1.45;;;1.35;;
52412;SDS011;38339;53.234;6.578;2022-09-29T16:51:50;4.88;;;3.10;;
52412;SDS011;38339;53.234;6.578;2022-09-29T16:54:19;7.32;;;5.78;;
52412;SDS011;38339;53.234;6.578;2022-09-29T16:59:41;3.88;;;2.03;;
52412;SDS011;38339;53.234;6.578;2022-09-29T17:02:07;7.43;;;3.08;;
52412;SDS011;38339;53.234;6.578;2022-09-29T17:04:34;4.25;;;2.85;;
52412;SDS011;38339;53.234;6.578;2022-09-29T17:07:00;4.65;;;2.10;;
52412;SDS011;38339;53.234;6.578;2022-09-29T17:09:27;4.55;;;2.38;;
52412;SDS011;38339;53.234;6.578;2022-09-29T17:11:53;10.18;;;4.97;;
52412;SDS011;38339;53.234;6.578;2022-09-29T17:14:18;7.07;;;3.13;;
52412;SDS011;38339;53.234;6.578;2022-09-29T17:16:46;4.30;;;2.53;;
52412;SDS011;38339;53.234;6.578;2022-09-29T17:19:17;5.63;;;3.70;;
52412;SDS011;38339;53.234;6.578;2022-09-29T17:21:44;4.80;;;2.90;;
52412;SDS011;38339;53.234;6.578;2022-09-29T17:24:09;4.20;;;2.40;;
52412;SDS011;38339;53.234;6.578;2022-09-29T17:26:39;4.80;;;2.80;;
52412;SDS011;38339;53.234;6.578;2022-09-29T17:29:26;4.80;;;2.70;;
52412;SDS011;38339;53.234;6.578;2022-09-29T17:31:52;5.55;;;3.50;;
52412;SDS011;38339;53.234;6.578;2022-09-29T17:34:18;4.88;;;2.97;;
52412;SDS011;38339;53.234;6.578;2022-09-29T17:36:53;6.28;;;3.30;;
52412;SDS011;38339;53.234;6.578;2022-09-29T17:39:20;5.63;;;3.40;;
52412;SDS011;38339;53.234;6.578;2022-09-29T17:41:46;5.05;;;3.00;;
52412;SDS011;38339;53.234;6.578;2022-09-29T17:44:13;5.75;;;3.22;;
52412;SDS011;38339;53.234;6.578;2022-09-29T17:46:39;3.88;;;2.80;;
52412;SDS011;38339;53.234;6.578;2022-09-29T17:49:08;8.90;;;3.38;;
52412;SDS011;38339;53.234;6.578;2022-09-29T17:51:36;7.05;;;3.58;;
52412;SDS011;38339;53.234;6.578;2022-09-29T17:54:02;4.53;;;3.40;;
52412;SDS011;38339;53.234;6.578;2022-09-29T17:56:28;6.53;;;4.03;;
52412;SDS011;38339;53.234;6.578;2022-09-29T17:59:01;4.53;;;3.63;;
52412;SDS011;38339;53.234;6.578;2022-09-29T18:01:30;7.10;;;4.25;;
52412;SDS011;38339;53.234;6.578;2022-09-29T18:04:03;4.53;;;2.97;;
52412;SDS011;38339;53.234;6.578;2022-09-29T18:06:30;4.70;;;3.50;;
52412;SDS011;38339;53.234;6.578;2022-09-29T18:09:02;7.25;;;4.25;;
52412;SDS011;38339;53.234;6.578;2022-09-29T18:11:37;8.48;;;4.10;;
52412;SDS011;38339;53.234;6.578;2022-09-29T18:14:03;15.98;;;10.95;;
52412;SDS011;38339;53.234;6.578;2022-09-29T18:16:29;6.72;;;4.97;;
52412;SDS011;38339;53.234;6.578;2022-09-29T18:18:54;5.47;;;3.97;;
52412;SDS011;38339;53.234;6.578;2022-09-29T18:21:21;5.72;;;4.47;;
52412;SDS011;38339;53.234;6.578;2022-09-29T18:23:46;7.55;;;4.88;;
52412;SDS011;38339;53.234;6.578;2022-09-29T18:26:12;6.38;;;4.30;;
52412;SDS011;38339;53.234;6.578;2022-09-29T18:28:39;8.57;;;5.80;;
52412;SDS011;38339;53.234;6.578;2022-09-29T18:31:06;9.48;;;6.30;;
52412;SDS011;38339;53.234;6.578;2022-09-29T18:33:58;6.85;;;4.53;;
52412;SDS011;38339;53.234;6.578;2022-09-29T18:36:24;6.18;;;4.55;;
52412;SDS011;38339;53.234;6.578;2022-09-29T18:38:49;8.35;;;4.30;;
52412;SDS011;38339;53.234;6.578;2022-09-29T18:41:16;8.15;;;4.50;;
52412;SDS011;38339;53.234;6.578;2022-09-29T18:43:47;5.82;;;4.30;;
52412;SDS011;38339;53.234;6.578;2022-09-29T18:46:13;7.93;;;6.47;;